Ana Sayfa
METAR-TAF:

METAR-TAF

Havaalanları :

Remada, Tunus

Enlem: 32-19N, Boylam: 010-24E, yükseklik: 300 m

Güncel hava durumu gözlemi

Rapor saat 14:00 UTC de 57 dakika önce yapıldı.
Rüzgar güneybatıdan 14 kt, güney ve batı arasında değişken
Sıcaklık 38°C
Nem 6%
Basınç 1002 hPa
Görüş mesafesi: 3000 m
Kum

METAR: DTTD 211400Z 23014KT 190V270 3000 SA NSC 38/M06 Q1002 RMK SIROCCO

Saat: 15:57 (14:57 UTC)


TAF: eksik

4.000'den fazla havaalanı için hava durumu gözlemleri ve tahminleri (METAR ve TAF raporları).

Kullanılabilir istasyonlar harita üzerinde sarı ve kırmızı noktalarla gösterilir.

İstasyonun adını görmek için fareyi noktanın üzerinde gezdirin.

Sonrasında hava gözlem ve tahminlerini görmek için tıklayın.

Haritayı değiştirmek için: yaklaştırmak için siyah artı işaretli yeşil düğmeye ve uzaklaştırmak için de eksi işaretli düğmeye hızla tıklayın; bitişik haritalar için yeşil okları kullanın.


METAR-TAF: